Time;durP1;ratioP1;P1;durP2;ratioP2;P2;SDS_P1;SDS_P2;PMS_P1;PMS_P2;Temp;Humidity;BMP_temperature;BMP_pressure;BME280_temperature;BME280_humidity;BME280_pressure;Samples;Min_cycle;Max_cycle;Signal;HPM_P1;HPM_P2
2022/04/23 00:00:07;;;;;;;1999.90;999.90;;;;;;;14.62;54.41;93860.94;5033552;28;20305;-89
2022/04/23 00:02:33;;;;;;;1999.90;999.90;;;;;;;14.40;54.62;93821.41;5015417;28;20198;-89
2022/04/23 00:04:58;;;;;;;1999.90;999.90;;;;;;;14.44;54.09;93821.69;5032867;28;20198;-90
2022/04/23 00:07:24;;;;;;;1999.90;999.90;;;;;;;14.57;54.34;93839.75;5014808;28;20270;-90
2022/04/23 00:09:50;;;;;;;1999.90;999.90;;;;;;;14.84;54.55;93887.25;5034415;28;20223;-89
2022/04/23 00:12:16;;;;;;;1999.90;999.90;;;;;;;14.46;54.59;93830.94;5037408;28;20170;-90
2022/04/23 00:14:43;;;;;;;1999.90;999.90;;;;;;;14.80;54.82;93881.66;5036859;28;20618;-87
2022/04/23 00:17:09;;;;;;;1999.90;999.90;;;;;;;14.54;54.93;93851.63;5018683;28;20241;-88
2022/04/23 00:19:35;;;;;;;1999.90;999.90;;;;;;;14.95;54.29;93896.81;5036861;28;20163;-88
2022/04/23 00:22:01;;;;;;;1999.90;999.90;;;;;;;14.62;55.00;93850.34;5036506;28;20182;-88
2022/04/23 00:24:26;;;;;;;1999.90;999.90;;;;;;;14.66;54.86;93868.13;5036424;28;20573;-89
2022/04/23 00:26:52;;;;;;;1999.90;999.90;;;;;;;14.59;55.21;93870.22;5018449;28;20176;-88
2022/04/23 00:29:17;;;;;;;1999.90;999.90;;;;;;;14.30;55.34;93830.06;5036034;28;20630;-88
2022/04/23 00:31:43;;;;;;;1999.90;999.90;;;;;;;14.63;55.15;93876.56;5013726;28;20196;-88
2022/04/23 00:34:09;;;;;;;1999.90;999.90;;;;;;;14.40;55.45;93855.03;5025010;28;20191;-88
2022/04/23 00:36:34;;;;;;;1999.90;999.90;;;;;;;14.30;55.76;93847.81;5024762;28;20204;-88
2022/04/23 00:39:00;;;;;;;1999.90;999.90;;;;;;;14.15;55.66;93823.94;5005914;28;20286;-88
2022/04/23 00:41:45;;;;;;;1999.90;999.90;;;;;;;14.44;56.08;93870.16;4998840;28;20180;-88
2022/04/23 00:44:11;;;;;;;1999.90;999.90;;;;;;;14.56;55.97;93891.91;5016048;28;20521;-87
2022/04/23 00:46:36;;;;;;;1999.90;999.90;;;;;;;14.36;55.80;93863.44;5022469;28;20278;-88
2022/04/23 00:49:06;;;;;;;1999.90;999.90;;;;;;;14.41;56.02;93889.19;5027767;28;20717;-88
2022/04/23 00:51:32;;;;;;;1999.90;999.90;;;;;;;14.19;56.68;93862.03;5009864;28;20650;-88
2022/04/23 00:54:04;;;;;;;1999.90;999.90;;;;;;;14.45;56.59;93895.56;5025841;28;20179;-88
2022/04/23 00:56:31;;;;;;;1999.90;999.90;;;;;;;14.47;56.17;93895.31;5018443;28;20171;-88
2022/04/23 00:58:57;;;;;;;1999.90;999.90;;;;;;;14.04;56.29;93838.16;5017602;28;20218;-89
2022/04/23 01:01:24;;;;;;;1999.90;999.90;;;;;;;14.38;56.78;93913.50;5018284;28;20571;-88
2022/04/23 01:03:52;;;;;;;1999.90;999.90;;;;;;;14.32;56.76;93903.94;5035913;28;20160;-89
2022/04/23 01:06:18;;;;;;;1999.90;999.90;;;;;;;14.01;56.93;93851.91;5018112;28;20267;-89
2022/04/23 01:08:45;;;;;;;1999.90;999.90;;;;;;;14.31;56.71;93907.66;5036722;28;20310;-89
2022/04/23 01:11:11;;;;;;;1999.90;999.90;;;;;;;13.90;56.92;93835.97;5017831;28;20646;-89
2022/04/23 01:13:36;;;;;;;1999.90;999.90;;;;;;;14.39;57.18;93909.03;5036833;28;20168;-89
2022/04/23 01:16:04;;;;;;;1999.90;999.90;;;;;;;14.28;57.12;93894.91;5037637;28;20175;-89
2022/04/23 01:18:31;;;;;;;1999.90;999.90;;;;;;;14.37;57.21;93906.63;5019257;28;20226;-90
2022/04/23 01:21:01;;;;;;;1999.90;999.90;;;;;;;14.40;56.80;93898.19;5019712;28;20191;-89
2022/04/23 01:23:29;;;;;;;1999.90;999.90;;;;;;;14.23;56.49;93852.53;5020617;28;20696;-90
2022/04/23 01:25:55;;;;;;;1999.90;999.90;;;;;;;14.45;56.35;93882.31;5037743;28;20645;-88
2022/04/23 01:28:22;;;;;;;1999.90;999.90;;;;;;;14.44;55.97;93887.91;5035842;28;20192;-88
2022/04/23 01:30:52;;;;;;;1999.90;999.90;;;;;;;14.42;56.38;93885.50;5016893;28;20179;-89
2022/04/23 01:33:18;;;;;;;1999.90;999.90;;;;;;;14.37;56.25;93869.53;5034284;28;20190;-90
2022/04/23 01:35:44;;;;;;;1999.90;999.90;;;;;;;14.58;56.03;93891.66;5034210;28;20179;-88
2022/04/23 01:38:11;;;;;;;1999.90;999.90;;;;;;;14.42;56.51;93866.97;5035176;28;20156;-87
2022/04/23 01:40:36;;;;;;;1999.90;999.90;;;;;;;14.25;56.58;93842.50;5016417;28;20187;-88
2022/04/23 01:43:02;;;;;;;1999.90;999.90;;;;;;;14.31;56.99;93846.75;5016822;28;20168;-90
2022/04/23 01:45:28;;;;;;;1999.90;999.90;;;;;;;14.22;56.93;93843.81;5034480;28;20183;-89
2022/04/23 01:47:53;;;;;;;1999.90;999.90;;;;;;;14.42;57.16;93866.16;5028371;28;20238;-88
2022/04/23 01:50:19;;;;;;;1999.90;999.90;;;;;;;14.70;57.20;93905.50;5021404;28;20536;-88
2022/04/23 01:52:44;;;;;;;1999.90;999.90;;;;;;;14.71;57.29;93915.81;5023128;28;20178;-88
2022/04/23 01:55:10;;;;;;;1999.90;999.90;;;;;;;14.31;57.54;93870.59;5010938;28;20179;-88
2022/04/23 01:57:36;;;;;;;1999.90;999.90;;;;;;;14.25;57.73;93861.03;5016442;28;20160;-88
2022/04/23 02:00:08;;;;;;;1999.90;999.90;;;;;;;13.94;58.07;93826.47;5016492;28;20187;-88
2022/04/23 02:02:36;;;;;;;1999.90;999.90;;;;;;;13.91;58.86;93855.28;5016775;28;20168;-88
2022/04/23 02:05:03;;;;;;;1999.90;999.90;;;;;;;14.04;58.93;93875.19;5016472;28;20195;-88
2022/04/23 02:07:29;;;;;;;1999.90;999.90;;;;;;;14.12;58.99;93915.22;5016542;28;20235;-88
2022/04/23 02:09:54;;;;;;;1999.90;999.90;;;;;;;13.66;59.23;93841.91;5016357;28;20314;-87
2022/04/23 02:12:20;;;;;;;414.33;128.70;;;;;;;13.84;59.48;93875.88;5017113;28;20642;-87
2022/04/23 02:14:47;;;;;;;744.63;285.53;;;;;;;13.64;59.56;93830.78;5016845;28;20168;-88
2022/04/23 02:17:13;;;;;;;120.93;110.23;;;;;;;13.67;59.64;93846.91;5016751;28;20258;-88
2022/04/23 02:19:39;;;;;;;6.77;6.17;;;;;;;13.83;59.83;93877.75;5034250;28;20578;-87
2022/04/23 02:22:05;;;;;;;6.20;2.70;;;;;;;13.97;60.54;93904.53;5034081;28;20239;-86
2022/04/23 02:24:31;;;;;;;4.17;2.07;;;;;;;13.56;60.57;93842.63;5016179;28;20167;-87
2022/04/23 02:26:57;;;;;;;3.60;2.27;;;;;;;13.46;60.64;93831.97;5033711;28;20609;-89
2022/04/23 02:29:22;;;;;;;4.43;2.73;;;;;;;13.63;60.84;93860.94;5015842;28;20693;-88
2022/04/23 02:31:48;;;;;;;5.00;2.00;;;;;;;13.23;60.67;93806.72;5033189;28;20168;-88
2022/04/23 02:34:13;;;;;;;2.93;1.97;;;;;;;13.46;60.44;93842.56;5015745;28;20183;-87
2022/04/23 02:36:39;;;;;;;7.73;2.50;;;;;;;13.36;60.41;93838.00;5028294;28;20180;-88
2022/04/23 02:39:04;;;;;;;5.20;2.20;;;;;;;13.45;60.71;93841.75;5004093;28;20274;-87
2022/04/23 02:41:30;;;;;;;3.33;2.10;;;;;;;13.29;60.76;93840.06;5026714;28;20582;-87
2022/04/23 02:43:57;;;;;;;2.03;1.60;;;;;;;13.23;61.08;93841.06;5023674;28;20195;-88
2022/04/23 02:46:24;;;;;;;3.23;1.70;;;;;;;13.29;60.77;93849.81;5001987;28;20270;-88
2022/04/23 02:48:49;;;;;;;4.13;2.03;;;;;;;13.55;61.27;93888.63;5003172;28;20227;-88
2022/04/23 02:51:16;;;;;;;4.73;2.50;;;;;;;13.45;60.90;93884.06;5013649;28;20207;-87
2022/04/23 02:53:44;;;;;;;4.53;2.03;;;;;;;13.63;61.32;93919.91;5013855;28;20160;-88
2022/04/23 02:56:13;;;;;;;6.03;2.43;;;;;;;13.19;60.81;93846.06;5013591;28;20168;-88
2022/04/23 02:58:40;;;;;;;3.30;2.20;;;;;;;13.13;61.02;93860.28;5013133;28;20669;-88
2022/04/23 03:01:10;;;;;;;10.33;2.93;;;;;;;13.53;60.90;93903.94;5013231;28;20235;-88
2022/04/23 03:03:43;;;;;;;4.90;2.47;;;;;;;13.10;61.04;93849.38;4995887;28;20263;-86
2022/04/23 03:06:09;;;;;;;7.73;2.60;;;;;;;13.41;61.46;93882.16;5014227;28;20681;-87
2022/04/23 03:08:37;;;;;;;5.07;2.33;;;;;;;13.64;61.26;93918.06;4995225;28;20228;-87
2022/04/23 03:11:05;;;;;;;5.57;2.90;;;;;;;13.66;61.21;93919.41;5013460;28;20184;-87
2022/04/23 03:13:31;;;;;;;3.83;2.03;;;;;;;12.77;61.16;93769.31;5013189;28;20177;-86
2022/04/23 03:15:56;;;;;;;4.93;2.40;;;;;;;13.51;61.87;93928.00;5013059;28;20180;-86
2022/04/23 03:18:22;;;;;;;5.73;2.00;;;;;;;13.31;62.17;93906.69;5013220;28;20173;-87
2022/04/23 03:20:48;;;;;;;4.73;2.07;;;;;;;13.19;62.94;93924.53;5024012;28;20583;-87
2022/04/23 03:23:14;;;;;;;5.30;2.20;;;;;;;13.16;63.17;93928.47;5023535;28;20221;-86
2022/04/23 03:25:40;;;;;;;5.70;2.17;;;;;;;12.73;63.18;93859.81;5006294;28;20238;-92
2022/04/23 03:28:07;;;;;;;5.27;2.13;;;;;;;13.20;63.07;93928.78;5000346;28;20670;-90
2022/04/23 03:30:33;;;;;;;6.00;2.77;;;;;;;12.81;63.57;93897.16;5026697;28;20243;-91
2022/04/23 03:32:59;;;;;;;3.00;2.27;;;;;;;12.87;63.95;93903.31;4995529;28;20204;-90
2022/04/23 03:35:26;;;;;;;6.43;2.20;;;;;;;12.81;64.04;93875.22;4995793;28;20211;-92
2022/04/23 03:37:52;;;;;;;4.07;1.97;;;;;;;13.13;63.31;93933.44;5016706;28;20176;-91
2022/04/23 03:40:17;;;;;;;2.43;2.20;;;;;;;13.13;63.74;93939.53;5008653;28;20192;-91
2022/04/23 03:42:48;;;;;;;5.83;2.30;;;;;;;12.70;64.26;93887.56;5032188;28;20168;-91
2022/04/23 03:45:15;;;;;;;4.47;2.53;;;;;;;13.06;64.76;93946.03;5004386;28;20241;-91
2022/04/23 03:47:45;;;;;;;6.30;3.47;;;;;;;12.83;65.04;93929.41;4995885;28;20200;-91
2022/04/23 03:50:11;;;;;;;8.17;4.37;;;;;;;12.59;65.50;93900.88;5012711;28;20167;-90
2022/04/23 03:52:37;;;;;;;8.20;3.40;;;;;;;12.55;66.27;93905.03;4995189;28;20231;-90
2022/04/23 03:55:04;;;;;;;4.97;3.73;;;;;;;12.90;66.57;93960.09;4995224;28;20168;-90
2022/04/23 03:57:29;;;;;;;8.90;3.60;;;;;;;12.60;66.50;93919.09;4995085;28;20195;-90
2022/04/23 03:59:55;;;;;;;7.03;4.13;;;;;;;12.13;66.55;93850.16;4995072;28;20169;-91
2022/04/23 04:02:21;;;;;;;17.33;4.60;;;;;;;12.14;67.70;93883.44;4995164;28;20184;-90
2022/04/23 04:04:47;;;;;;;7.23;2.33;;;;;;;11.99;68.01;93891.94;5005356;28;20218;-91
2022/04/23 04:07:20;;;;;;;4.73;3.13;;;;;;;12.10;67.80;93914.00;5026777;28;20173;-90
2022/04/23 04:09:46;;;;;;;5.90;3.00;;;;;;;12.07;68.10;93896.00;5002745;28;20239;-91
2022/04/23 04:12:12;;;;;;;4.67;2.67;;;;;;;12.47;67.90;93965.13;5006619;28;20670;-89
2022/04/23 04:14:37;;;;;;;6.43;2.70;;;;;;;12.42;67.76;93948.44;5014811;28;20180;-91
2022/04/23 04:17:07;;;;;;;4.80;3.47;;;;;;;12.63;67.47;93970.59;5032600;28;20171;-92
2022/04/23 04:19:33;;;;;;;6.83;3.13;;;;;;;12.39;67.00;93914.63;5015005;28;20599;-90
2022/04/23 04:22:02;;;;;;;5.33;2.83;;;;;;;12.64;67.66;93943.97;5032541;28;20259;-91
2022/04/23 04:24:28;;;;;;;5.17;2.47;;;;;;;12.82;68.00;93969.25;5014861;28;20258;-92
2022/04/23 04:26:54;;;;;;;7.40;2.67;;;;;;;12.36;67.33;93892.16;5032131;28;20208;-89
2022/04/23 04:29:20;;;;;;;4.57;3.17;;;;;;;12.23;69.09;93863.50;5014328;28;20195;-89
2022/04/23 04:31:51;;;;;;;5.27;2.90;;;;;;;12.76;68.57;93941.22;5014575;28;20657;-89
2022/04/23 04:34:18;;;;;;;3.40;3.10;;;;;;;13.01;68.64;93977.69;5014410;28;20172;-89
2022/04/23 04:36:45;;;;;;;4.80;2.93;;;;;;;12.82;68.51;93940.22;5014360;28;20164;-88
2022/04/23 04:39:11;;;;;;;9.87;3.37;;;;;;;12.77;69.02;93934.88;5014421;28;20175;-89
2022/04/23 04:41:37;;;;;;;10.27;3.37;;;;;;;12.76;68.23;93922.72;5014435;28;20752;-87
2022/04/23 04:44:04;;;;;;;10.47;3.40;;;;;;;13.17;67.37;93987.41;5014550;28;20207;-89
2022/04/23 04:46:30;;;;;;;11.30;3.33;;;;;;;13.02;67.31;93952.84;5018844;28;20183;-88
2022/04/23 04:48:56;;;;;;;7.63;3.70;;;;;;;12.76;67.34;93901.59;5017217;28;20195;-89
2022/04/23 04:51:21;;;;;;;7.93;3.20;;;;;;;13.10;67.21;93962.97;5014252;28;20190;-89
2022/04/23 04:53:47;;;;;;;6.50;3.87;;;;;;;12.88;67.30;93928.69;5014450;28;20307;-89
2022/04/23 04:56:12;;;;;;;10.73;5.60;;;;;;;12.89;68.49;93937.38;5016134;28;20176;-90
2022/04/23 04:58:38;;;;;;;11.23;6.87;;;;;;;12.92;68.71;93942.97;5020187;28;20175;-88
2022/04/23 05:01:03;;;;;;;13.77;5.57;;;;;;;13.13;69.57;93970.44;5021469;28;20178;-89
2022/04/23 05:03:29;;;;;;;13.80;6.83;;;;;;;13.06;70.02;93953.97;5017720;28;20352;-88
2022/04/23 05:05:55;;;;;;;23.53;12.70;;;;;;;13.61;68.14;93988.09;5017807;28;20253;-89
2022/04/23 05:08:20;;;;;;;25.80;14.13;;;;;;;13.76;67.30;93967.06;5035900;28;20227;-89
2022/04/23 05:10:47;;;;;;;25.23;13.77;;;;;;;14.16;64.97;94011.59;5035895;28;20654;-89
2022/04/23 05:13:12;;;;;;;14.83;6.27;;;;;;;14.16;63.56;94013.44;5018642;28;20194;-89
2022/04/23 05:15:39;;;;;;;12.50;5.07;;;;;;;13.81;63.75;93961.03;5035655;28;20641;-89
2022/04/23 05:18:04;;;;;;;8.17;4.00;;;;;;;14.03;64.04;94012.00;5035409;28;20159;-89
2022/04/23 05:20:30;;;;;;;5.37;2.70;;;;;;;13.66;64.98;93968.84;5035412;28;20171;-89
2022/04/23 05:22:55;;;;;;;7.73;3.00;;;;;;;13.57;64.99;93966.66;5017822;28;20211;-90
2022/04/23 05:25:21;;;;;;;7.57;2.83;;;;;;;13.71;65.58;93990.03;5035594;28;20560;-89
2022/04/23 05:27:46;;;;;;;9.87;3.10;;;;;;;13.74;65.28;94000.13;5016768;28;20253;-90
2022/04/23 05:30:12;;;;;;;9.77;3.50;;;;;;;13.85;66.59;94021.13;5009617;28;20717;-90
2022/04/23 05:32:37;;;;;;;4.40;2.60;;;;;;;13.83;67.41;94010.00;5006375;28;20648;-89
2022/04/23 05:35:04;;;;;;;4.33;2.80;;;;;;;13.45;67.61;93947.50;5008524;28;20204;-89
2022/04/23 05:37:30;;;;;;;9.83;3.57;;;;;;;13.87;68.80;94003.16;5003873;28;20185;-88
2022/04/23 05:39:55;;;;;;;5.30;3.30;;;;;;;14.23;69.68;94053.72;5013804;28;20175;-88
2022/04/23 05:42:21;;;;;;;6.97;3.67;;;;;;;14.06;69.94;94016.00;5014045;28;20184;-89
2022/04/23 05:44:46;;;;;;;7.83;3.00;;;;;;;13.76;70.01;93942.47;4997693;28;20184;-90
2022/04/23 05:47:11;;;;;;;6.93;2.80;;;;;;;14.23;70.00;93998.13;4997784;28;20194;-90
2022/04/23 05:49:38;;;;;;;5.80;3.27;;;;;;;14.48;70.61;94013.44;5006182;28;20337;-89
2022/04/23 05:52:04;;;;;;;6.00;3.37;;;;;;;14.56;69.86;93981.97;5011921;28;20179;-89
2022/04/23 05:54:29;;;;;;;9.17;3.80;;;;;;;14.57;69.72;93948.31;5023776;28;20220;-88
2022/04/23 05:56:55;;;;;;;1717.43;737.73;;;;;;;15.47;69.34;94000.88;5003438;28;20995;-92
2022/04/23 05:59:20;;;;;;;435.93;401.97;;;;;;;16.71;66.40;94054.63;4997732;28;20215;-90
2022/04/23 06:01:46;;;;;;;57.97;30.30;;;;;;;17.42;65.24;94046.44;4997896;28;20626;-89
2022/04/23 06:04:12;;;;;;;67.30;21.85;;;;;;;17.92;61.86;93980.69;5020529;28;20190;-87
2022/04/23 06:06:37;;;;;;;56.97;20.98;;;;;;;18.58;59.21;94007.63;5020518;28;20267;-87
2022/04/23 06:09:03;;;;;;;5.15;3.63;;;;;;;18.94;57.15;94034.72;5000198;28;20243;-89
2022/04/23 06:11:28;;;;;;;10.32;5.13;;;;;;;18.72;56.14;93997.09;5009443;28;20176;-90
2022/04/23 06:13:54;;;;;;;6.10;4.82;;;;;;;18.97;55.54;93994.16;5017341;28;20187;-90
2022/04/23 06:16:19;;;;;;;16.27;3.58;;;;;;;19.03;54.55;94009.00;5023424;28;20210;-89
2022/04/23 06:18:46;;;;;;;6.22;3.90;;;;;;;18.87;55.36;94015.59;5031595;28;20199;-89
2022/04/23 06:21:11;;;;;;;8.68;4.28;;;;;;;18.78;56.28;94027.94;5024705;28;20211;-89
2022/04/23 06:23:37;;;;;;;6.20;2.90;;;;;;;18.71;56.50;94062.16;5005512;28;20665;-89
2022/04/23 06:26:02;;;;;;;8.73;2.72;;;;;;;18.29;55.93;94014.78;5000306;28;20245;-88
2022/04/23 06:28:28;;;;;;;5.05;2.50;;;;;;;18.00;57.18;94030.69;5004818;28;20204;-89
2022/04/23 06:30:53;;;;;;;4.03;2.42;;;;;;;17.81;58.93;94005.81;5003910;28;20180;-89
2022/04/23 06:33:19;;;;;;;5.90;2.35;;;;;;;18.24;58.20;94012.97;5006028;28;20172;-89
2022/04/23 06:35:44;;;;;;;6.70;2.47;;;;;;;18.56;57.12;93984.94;5032559;28;20172;-89
2022/04/23 06:38:10;;;;;;;3.45;2.28;;;;;;;19.29;58.74;93992.69;5007031;28;20255;-90
2022/04/23 06:40:35;;;;;;;7.15;2.58;;;;;;;20.10;56.00;94024.47;5004654;28;20179;-88
2022/04/23 06:43:01;;;;;;;4.65;2.40;;;;;;;21.04;54.60;94088.50;5016315;28;20219;-90
2022/04/23 06:45:27;;;;;;;4.97;2.30;;;;;;;21.40;51.76;94041.25;5016325;28;20184;-90
2022/04/23 06:48:03;;;;;;;3.95;2.20;;;;;;;21.72;49.57;94051.06;5007646;28;20778;-90
2022/04/23 06:50:32;;;;;;;2.90;2.33;;;;;;;22.16;50.37;94082.56;5006932;28;20707;-89
2022/04/23 06:53:02;;;;;;;3.85;2.40;;;;;;;22.31;49.90;94035.06;5012474;28;20207;-89
2022/04/23 06:55:28;;;;;;;4.40;2.45;;;;;;;22.69;48.42;94063.09;5008882;28;20179;-90
2022/04/23 06:57:54;;;;;;;6.55;2.95;;;;;;;22.82;46.55;94067.66;5003144;28;20172;-87
2022/04/23 07:00:22;;;;;;;4.90;1.90;;;;;;;22.57;45.94;94033.38;5014966;28;20175;-91
2022/04/23 07:02:51;;;;;;;12.02;2.00;;;;;;;22.39;45.70;94034.34;5013752;28;20303;-88
2022/04/23 07:05:17;;;;;;;4.15;2.10;;;;;;;22.34;46.67;94029.88;5003785;28;20179;-91
2022/04/23 07:08:01;;;;;;;9.38;2.30;;;;;;;22.55;46.18;94046.28;5000812;28;20216;-90
2022/04/23 07:10:28;;;;;;;6.55;2.20;;;;;;;22.62;46.87;94032.44;5005719;28;20176;-92
2022/04/23 07:12:56;;;;;;;4.05;1.88;;;;;;;22.86;47.61;94046.34;5015880;28;20179;-95
2022/04/23 07:15:28;;;;;;;2.75;2.13;;;;;;;23.13;46.08;94073.03;5014642;28;20169;-95
2022/04/23 07:17:54;;;;;;;7.65;2.55;;;;;;;22.85;47.28;94031.34;4998667;28;20163;-90
2022/04/23 07:20:20;;;;;;;5.20;2.10;;;;;;;23.58;46.36;94100.63;5016357;28;20168;-94
2022/04/23 07:25:48;;;;;;;6.80;2.63;;;;;;;23.94;44.03;94091.56;5028980;28;20226;-90
2022/04/23 07:28:14;;;;;;;4.38;2.15;;;;;;;23.36;44.95;94054.16;5013761;28;20191;-90
2022/04/23 07:30:39;;;;;;;6.53;2.08;;;;;;;22.86;45.55;94038.28;5005842;28;20183;-90
2022/04/23 07:33:05;;;;;;;5.20;2.30;;;;;;;23.03;45.95;94075.19;5003938;28;20188;-88
2022/04/23 07:38:21;;;;;;;5.10;1.90;;;;;;;22.60;47.46;94132.00;5020127;28;20175;-85
2022/04/23 07:40:51;;;;;;;4.97;2.45;;;;;;;22.27;47.39;94134.09;5020128;28;20172;-86
2022/04/23 07:43:17;;;;;;;4.82;2.03;;;;;;;21.74;47.74;94102.47;5009207;28;20172;-89
2022/04/23 07:45:44;;;;;;;58.72;9.27;;;;;;;21.26;49.10;94083.31;5032501;28;20203;-93
2022/04/23 07:48:12;;;;;;;5.57;2.67;;;;;;;21.16;50.02;94147.72;5033382;28;20180;-91
2022/04/23 07:50:40;;;;;;;5.45;2.60;;;;;;;20.02;52.48;94083.13;5012743;28;20186;-92
2022/04/23 07:53:07;;;;;;;8.60;2.58;;;;;;;19.54;54.12;94072.53;5011258;28;20394;-92
2022/04/23 07:55:36;;;;;;;4.60;2.67;;;;;;;19.80;56.16;94143.25;5005279;28;20203;-92
2022/04/23 07:58:05;;;;;;;5.72;2.97;;;;;;;19.47;55.62;94101.38;5006691;28;20571;-92
2022/04/23 08:00:34;;;;;;;7.22;3.15;;;;;;;19.72;56.92;94097.69;5004101;28;20168;-92
2022/04/23 08:03:02;;;;;;;10.35;2.95;;;;;;;20.52;57.74;94149.25;4999420;28;20250;-92
2022/04/23 08:05:29;;;;;;;3.20;2.15;;;;;;;20.67;55.28;94108.09;5009953;28;20222;-92
2022/04/23 08:07:54;;;;;;;6.80;3.10;;;;;;;20.67;54.91;94100.06;5002096;28;20220;-93
2022/04/23 08:10:20;;;;;;;5.65;2.40;;;;;;;20.50;53.46;94060.50;5029204;28;20226;-94
2022/04/23 08:12:46;;;;;;;5.15;2.47;;;;;;;21.16;55.00;94158.41;5009754;28;20249;-92
2022/04/23 08:15:12;;;;;;;5.38;2.80;;;;;;;21.17;55.91;94109.19;5015432;28;20216;-88
2022/04/23 08:17:38;;;;;;;10.48;2.85;;;;;;;21.96;51.90;94174.13;5014577;28;20178;-88
2022/04/23 08:20:04;;;;;;;3.83;2.60;;;;;;;22.22;52.11;94131.53;5032267;28;20167;-86
2022/04/23 08:22:30;;;;;;;6.45;2.13;;;;;;;22.10;50.67;94115.16;5014442;28;20164;-87
2022/04/23 08:24:56;;;;;;;5.90;2.67;;;;;;;21.88;49.68;94133.84;5032469;28;20167;-86
2022/04/23 08:27:22;;;;;;;6.40;2.60;;;;;;;21.25;51.31;94124.56;5014217;28;20734;-85
2022/04/23 08:32:42;;;;;;;5.40;1.95;;;;;;;20.61;52.66;94136.03;5034001;28;20558;-84
2022/04/23 08:35:08;;;;;;;8.00;1.70;;;;;;;20.33;53.01;94095.75;5023396;28;20175;-83
2022/04/23 08:37:37;;;;;;;7.78;2.03;;;;;;;20.77;51.94;94152.63;5024454;28;20161;-83
2022/04/23 08:40:04;;;;;;;7.25;2.00;;;;;;;21.00;52.68;94138.34;5016434;28;20251;-89
2022/04/23 08:42:30;;;;;;;4.85;1.92;;;;;;;21.36;51.79;94144.69;5002581;28;20176;-90
2022/04/23 08:44:57;;;;;;;6.00;1.80;;;;;;;21.56;51.01;94121.31;5004581;28;20300;-88
2022/04/23 08:47:24;;;;;;;2.50;2.00;;;;;;;21.95;50.72;94126.97;5003881;28;20686;-91
2022/04/23 08:49:56;;;;;;;4.05;1.92;;;;;;;22.32;49.29;94173.41;5010465;28;20668;-87
2022/04/23 08:52:32;;;;;;;2.90;1.70;;;;;;;22.19;48.11;94172.34;5025398;28;20262;-87
2022/04/23 08:54:58;;;;;;;2.30;1.30;;;;;;;21.71;48.36;94145.13;5019732;28;20711;-86
2022/04/23 08:57:24;;;;;;;5.10;1.90;;;;;;;21.06;47.90;94105.84;5015559;28;20157;-84
2022/04/23 08:59:53;;;;;;;4.32;1.73;;;;;;;20.85;48.75;94131.34;5025632;28;20645;-86
2022/04/23 09:02:19;;;;;;;3.78;1.88;;;;;;;20.40;49.62;94124.06;5035408;28;20645;-86
2022/04/23 09:04:44;;;;;;;3.35;1.67;;;;;;;20.01;51.11;94111.72;5035165;28;20171;-87
2022/04/23 09:07:25;;;;;;;5.80;1.80;;;;;;;19.92;51.82;94135.59;5023392;28;20614;-85
2022/04/23 09:09:53;;;;;;;6.07;3.33;;;;;;;20.07;52.53;94171.22;5015415;28;20301;-86
2022/04/23 09:12:23;;;;;;;5.63;2.30;;;;;;;20.03;52.90;94173.69;5021610;28;20187;-86
2022/04/23 09:14:49;;;;;;;6.20;1.67;;;;;;;20.22;54.83;94160.34;5023056;28;20200;-93
2022/04/23 09:25:42;;;;;;;2.42;1.10;;;;;;;20.88;50.13;94103.22;5026442;28;20214;-89
2022/04/23 09:28:14;;;;;;;4.95;1.65;;;;;;;21.07;50.80;94173.56;4997743;28;20200;-90
2022/04/23 09:30:40;;;;;;;6.47;2.00;;;;;;;20.60;50.58;94155.81;5029604;28;20211;-91
2022/04/23 09:33:05;;;;;;;3.20;2.20;;;;;;;20.18;51.61;94112.00;5013493;28;20221;-88
2022/04/23 09:35:31;;;;;;;6.03;2.15;;;;;;;20.36;52.39;94171.94;5006661;28;20215;-86
2022/04/23 09:38:11;;;;;;;14.95;2.72;;;;;;;19.75;52.45;94167.34;5025043;28;20164;-86
2022/04/23 09:40:37;;;;;;;3.97;2.30;;;;;;;19.38;54.58;94159.16;5007906;28;20234;-88
2022/04/23 09:43:06;;;;;;;6.25;2.08;;;;;;;19.14;55.28;94156.44;5029071;28;20183;-86
2022/04/23 09:45:34;;;;;;;4.38;2.05;;;;;;;18.78;56.71;94153.28;5022276;28;21497;-86
2022/04/23 09:48:06;;;;;;;5.47;2.90;;;;;;;18.80;56.26;94148.47;5024856;28;20218;-85
2022/04/23 09:50:38;;;;;;;5.13;3.65;;;;;;;18.85;57.27;94140.44;5025955;28;20173;-83
2022/04/23 09:53:12;;;;;;;7.68;2.17;;;;;;;18.67;55.72;94107.25;5022507;28;20653;-83
2022/04/23 09:55:38;;;;;;;3.72;1.75;;;;;;;18.85;57.05;94143.88;5008740;28;20183;-84
2022/04/23 09:58:08;;;;;;;8.85;3.28;;;;;;;18.95;59.86;94076.31;5027826;28;20183;-93
2022/04/23 10:00:43;;;;;;;5.20;2.22;;;;;;;;;;5010307;28;20187;-89
2022/04/23 10:03:10;;;;;;;4.93;2.03;;;;;;;20.16;53.87;94119.50;5008416;28;20191;-86
2022/04/23 10:05:41;;;;;;;3.05;1.65;;;;;;;20.22;54.82;94085.50;5026452;28;20270;-85
2022/04/23 10:08:12;;;;;;;3.40;1.63;;;;;;;20.33;53.30;94070.88;5029744;28;20195;-85
2022/04/23 10:11:04;;;;;;;3.33;1.63;;;;;;;20.56;50.50;94128.88;5003037;28;20180;-84
2022/04/23 10:13:30;;;;;;;6.22;2.25;;;;;;;20.05;52.98;94133.31;5005968;28;21000;-81
2022/04/23 10:16:02;;;;;;;4.90;2.08;;;;;;;19.08;52.88;94067.66;5018840;28;20260;-82
2022/04/23 10:18:27;;;;;;;3.10;1.70;;;;;;;18.93;53.77;94102.50;5023107;28;20175;-82
2022/04/23 10:20:57;;;;;;;4.70;2.05;;;;;;;18.90;55.33;94112.91;5027661;28;20609;-81
2022/04/23 10:23:46;;;;;;;4.05;1.90;;;;;;;18.98;55.17;94126.44;5021663;28;20187;-82
2022/04/23 10:26:17;;;;;;;5.15;2.08;;;;;;;19.40;56.90;94123.09;5024751;28;20183;-84
2022/04/23 10:28:52;;;;;;;7.35;1.98;;;;;;;19.44;56.62;94091.31;5021362;28;20210;-83
2022/04/23 10:31:18;;;;;;;4.18;1.73;;;;;;;19.45;54.00;94122.25;5021505;28;20268;-84
2022/04/23 10:33:54;;;;;;;5.63;2.20;;;;;;;19.30;53.89;94122.41;5020103;28;20188;-82
2022/04/23 10:36:21;;;;;;;8.52;2.50;;;;;;;19.14;55.48;94121.75;5023936;28;20582;-84
2022/04/23 10:38:51;;;;;;;6.25;2.45;;;;;;;18.99;55.49;94124.56;5005111;28;20180;-84
2022/04/23 10:41:19;;;;;;;10.48;2.22;;;;;;;18.96;54.75;94101.91;5023583;28;20169;-81
2022/04/23 10:43:50;;;;;;;5.93;2.72;;;;;;;18.87;55.40;94090.25;5006470;28;20561;-83
2022/04/23 10:46:37;;;;;;;7.20;2.35;;;;;;;19.01;57.00;94072.53;5023712;28;20266;-85
2022/04/23 10:49:19;;;;;;;6.65;2.70;;;;;;;19.46;55.60;94113.19;5024133;28;20713;-84
2022/04/23 10:51:54;;;;;;;7.10;2.28;;;;;;;19.33;54.72;94074.59;5025033;28;20376;-92
2022/04/23 10:54:40;;;;;;;9.00;2.75;;;;;;;19.74;55.45;94123.00;5020080;28;20202;-87
2022/04/23 10:57:10;;;;;;;7.65;2.47;;;;;;;19.52;55.51;94086.16;4994698;28;20191;-88
2022/04/23 10:59:47;;;;;;;12.18;2.80;;;;;;;19.76;55.00;94102.16;5025522;28;20305;-85
2022/04/23 11:02:18;;;;;;;11.57;2.60;;;;;;;19.90;55.41;94115.59;5026085;28;20171;-85
2022/04/23 11:13:53;;;;;;;8.38;2.30;;;;;;;20.45;53.86;94119.41;5019213;28;20191;-88
2022/04/23 11:16:20;;;;;;;10.30;2.33;;;;;;;20.66;53.46;94118.03;5005931;28;20191;-87
2022/04/23 11:18:49;;;;;;;7.95;1.83;;;;;;;20.90;51.94;94109.09;5033036;28;20164;-86
2022/04/23 11:21:24;;;;;;;2.15;1.40;;;;;;;20.88;48.97;94079.13;5033188;28;20258;-87
2022/04/23 11:23:51;;;;;;;7.05;1.85;;;;;;;20.73;50.80;94058.81;5031274;28;20178;-87
2022/04/23 11:26:18;;;;;;;53.10;2.70;;;;;;;21.19;51.66;94123.03;5029500;28;20171;-84
2022/04/23 11:28:45;;;;;;;5.95;1.98;;;;;;;21.23;52.83;94126.72;5024394;28;20609;-86
2022/04/23 11:31:16;;;;;;;6.13;2.20;;;;;;;20.73;50.85;94053.44;5003338;28;20176;-87
2022/04/23 11:33:56;;;;;;;5.05;2.10;;;;;;;21.25;49.30;94127.25;5008295;28;20661;-85
2022/04/23 11:36:29;;;;;;;13.63;3.70;;;;;;;21.16;49.12;94099.53;5028541;28;20183;-86
2022/04/23 11:38:56;;;;;;;6.75;1.85;;;;;;;21.31;50.14;94138.66;5023831;28;20198;-86
2022/04/23 11:41:28;;;;;;;4.00;2.10;;;;;;;21.25;51.97;94139.84;5023984;28;20263;-87
2022/04/23 11:43:54;;;;;;;9.50;2.47;;;;;;;20.94;51.55;94085.97;5006321;28;20180;-87
2022/04/23 11:46:19;;;;;;;9.95;2.20;;;;;;;21.22;51.19;94135.84;5008672;28;20594;-87
2022/04/23 11:48:47;;;;;;;11.82;2.17;;;;;;;20.92;52.55;94136.34;5026099;28;20183;-88
2022/04/23 11:51:14;;;;;;;9.57;2.63;;;;;;;20.52;54.59;94101.13;5029166;28;20180;-87